Westchester County Airport White Plains US
ICAO: KHPN
IATA: HPN
Category: Medium
Scheduled Services: Yes

Elevation: 439 ft
TransAlt. 18000 ft.

Airport Communications:
NEW YORK APP:120.8
ATIS:133.8
CLNC DEL:127.25
CTAF:118.575
NEW YORK DEP:120.55
GND:121.825
TWR:118.575
UNICOM:122.95

KHPN Zoom In..

If you have problems with the map follow the link
https://www.worldairports.se/pages/airport.php?
ICAO=KHPN

Runways:

(A) RW 11 length 4451 ft width 150 ft
---- / hdg 114

(B) RW 16 length 6549 ft width 150 ft
ILS 109.70 / hdg 162

(C) RW 29 length 4451 ft width 150 ft
---- / hdg 294

(D) RW 34 length 6549 ft width 150 ft
ILS 109.70 / hdg 342

Location; KHPN
Day. 14 / Time. 15.56 Zulu
* Altimeter: 29.39
* Temperature: 12° c. 53.6°f.
* Wind from: 140° Speed 03 kn.
Dewpoint: 12° c.
Visibility: M// Statute Miles.
Conditions: Heavy Drizzle.Conditions: Fog.

KHPN 141556Z 14003KT M1/4SM R16/1600V2000FT +DZ FG VV002 12/12 A2939 RMK AO2 SLP955 P0000 T01170117


Wind From 140°
Speed 03 kn.

 
 
jpsmedia worldairports.se 2019   terms of use